createdAt,value
2018-09-09T00:02:17.079Z,14.89
2018-09-09T00:04:45.796Z,14.74
2018-09-09T00:07:15.161Z,14.79
2018-09-09T00:09:47.736Z,14.71
2018-09-09T00:12:16.872Z,14.55
2018-09-09T00:14:45.466Z,14.46
2018-09-09T00:17:14.166Z,14.40
2018-09-09T00:19:42.883Z,14.35
2018-09-09T00:22:11.539Z,14.24
2018-09-09T00:24:40.185Z,14.18
2018-09-09T00:27:08.860Z,14.16
2018-09-09T00:29:37.606Z,14.28
2018-09-09T00:32:06.289Z,14.18
2018-09-09T00:34:34.935Z,14.03
2018-09-09T00:37:03.614Z,13.99
2018-09-09T00:39:32.276Z,13.99
2018-09-09T00:42:00.940Z,14.02
2018-09-09T00:44:29.625Z,14.10
2018-09-09T00:46:58.295Z,13.98
2018-09-09T00:49:32.185Z,14.17
2018-09-09T00:52:05.990Z,14.12
2018-09-09T00:54:34.722Z,14.10
2018-09-09T00:57:03.419Z,14.00
2018-09-09T00:59:32.088Z,13.87
2018-09-09T01:02:00.740Z,13.98
2018-09-09T01:04:29.451Z,14.03
2018-09-09T01:06:58.160Z,13.99
2018-09-09T01:09:33.571Z,14.04
2018-09-09T01:12:03.631Z,13.97
2018-09-09T01:14:32.733Z,13.85
2018-09-09T01:17:01.398Z,13.87
2018-09-09T01:19:30.031Z,13.83
2018-09-09T01:21:58.694Z,13.74
2018-09-09T01:24:27.430Z,13.84
2018-09-09T01:26:56.063Z,13.78
2018-09-09T01:29:24.785Z,13.64
2018-09-09T01:31:53.710Z,13.69
2018-09-09T01:34:22.469Z,13.74
2018-09-09T01:36:51.156Z,13.87
2018-09-09T01:39:19.833Z,13.69
2018-09-09T01:41:48.531Z,13.76
2018-09-09T01:44:17.168Z,13.87
2018-09-09T01:46:45.800Z,13.84
2018-09-09T01:49:14.469Z,13.69
2018-09-09T01:51:43.145Z,13.66
2018-09-09T01:54:11.763Z,13.85
2018-09-09T01:56:40.425Z,14.10
2018-09-09T01:59:09.078Z,14.19
2018-09-09T02:01:37.759Z,14.32
2018-09-09T02:04:06.393Z,14.48
2018-09-09T02:06:35.093Z,14.65
2018-09-09T02:09:04.361Z,14.67
2018-09-09T02:11:32.990Z,14.66
2018-09-09T02:14:01.666Z,14.73
2018-09-09T02:16:30.359Z,14.67
2018-09-09T02:18:59.054Z,14.87
2018-09-09T02:21:27.724Z,14.84
2018-09-09T02:23:56.417Z,14.86
2018-09-09T02:26:25.094Z,14.85
2018-09-09T02:28:53.891Z,15.02
2018-09-09T02:31:22.525Z,15.09
2018-09-09T02:33:51.223Z,15.17
2018-09-09T02:36:19.830Z,15.14
2018-09-09T02:38:48.530Z,15.12
2018-09-09T02:41:17.212Z,15.02
2018-09-09T02:43:45.905Z,15.05
2018-09-09T02:46:14.502Z,15.07
2018-09-09T02:48:43.668Z,15.08
2018-09-09T02:51:12.284Z,15.00
2018-09-09T02:53:40.993Z,15.04
2018-09-09T02:56:11.495Z,15.02
2018-09-09T02:58:40.184Z,15.08
2018-09-09T03:01:08.877Z,15.14
2018-09-09T03:03:37.652Z,15.27
2018-09-09T03:06:06.435Z,15.51
2018-09-09T03:08:35.091Z,15.56
2018-09-09T03:11:08.949Z,15.53
2018-09-09T03:13:37.623Z,15.38
2018-09-09T03:16:06.382Z,15.37
2018-09-09T03:18:35.038Z,15.44
2018-09-09T03:21:03.845Z,15.39
2018-09-09T03:23:32.550Z,15.34
2018-09-09T03:26:01.842Z,15.48
2018-09-09T03:28:31.133Z,15.53
2018-09-09T03:30:59.797Z,15.50
2018-09-09T03:33:28.475Z,15.54
2018-09-09T03:35:57.073Z,15.58
2018-09-09T03:38:25.718Z,15.59
2018-09-09T03:40:54.365Z,15.48
2018-09-09T03:43:23.110Z,15.32
2018-09-09T03:45:51.796Z,15.30
2018-09-09T03:48:20.444Z,15.38
2018-09-09T03:50:49.122Z,15.31
2018-09-09T03:53:17.764Z,15.33
2018-09-09T03:55:46.458Z,15.31
2018-09-09T03:58:16.074Z,15.23
2018-09-09T04:00:44.773Z,15.29
2018-09-09T04:03:13.411Z,15.42
2018-09-09T04:05:42.080Z,15.48
2018-09-09T04:08:10.709Z,15.55
2018-09-09T04:10:39.414Z,15.51
2018-09-09T04:13:08.074Z,15.47
2018-09-09T04:15:36.652Z,15.33
2018-09-09T04:18:05.474Z,15.31
2018-09-09T04:20:34.109Z,15.13
2018-09-09T04:23:02.790Z,15.07
2018-09-09T04:25:31.495Z,14.80
2018-09-09T04:28:00.119Z,14.86
2018-09-09T04:30:28.923Z,14.76
2018-09-09T04:32:57.610Z,14.84
2018-09-09T04:35:26.310Z,14.68
2018-09-09T04:37:54.951Z,14.69
2018-09-09T04:40:23.605Z,14.78
2018-09-09T04:42:52.268Z,14.91
2018-09-09T04:45:20.891Z,15.00
2018-09-09T04:47:49.538Z,14.99
2018-09-09T04:50:18.230Z,14.95
2018-09-09T04:52:46.849Z,15.03
2018-09-09T04:55:16.069Z,15.16
2018-09-09T04:57:44.758Z,15.14
2018-09-09T05:00:13.489Z,15.04
2018-09-09T05:02:42.125Z,14.92
2018-09-09T05:05:10.813Z,14.81
2018-09-09T05:07:39.542Z,14.78
2018-09-09T05:10:08.283Z,14.85
2018-09-09T05:12:36.908Z,14.88
2018-09-09T05:15:05.802Z,14.77
2018-09-09T05:17:34.730Z,14.49
2018-09-09T05:20:03.533Z,14.69
2018-09-09T05:22:32.257Z,14.84
2018-09-09T05:25:00.903Z,15.00
2018-09-09T05:27:29.657Z,15.19
2018-09-09T05:29:58.378Z,15.34
2018-09-09T05:32:27.093Z,15.35
2018-09-09T05:34:55.752Z,15.39
2018-09-09T05:37:24.429Z,15.39
2018-09-09T05:39:53.032Z,15.35
2018-09-09T05:42:21.745Z,15.34
2018-09-09T05:44:50.468Z,15.37
2018-09-09T05:47:19.117Z,15.30
2018-09-09T05:49:47.724Z,15.26
2018-09-09T05:52:16.465Z,15.39
2018-09-09T05:54:45.158Z,15.52
2018-09-09T05:57:13.868Z,15.55
2018-09-09T05:59:42.548Z,15.49
2018-09-09T06:02:11.289Z,15.25
2018-09-09T06:04:39.957Z,15.37
2018-09-09T06:07:08.768Z,15.46
2018-09-09T06:09:37.484Z,15.62
2018-09-09T06:12:06.207Z,15.83
2018-09-09T06:14:34.948Z,15.88
2018-09-09T06:17:03.638Z,15.94
2018-09-09T06:19:32.254Z,15.93
2018-09-09T06:22:00.928Z,16.07
2018-09-09T06:24:29.680Z,16.11
2018-09-09T06:26:58.483Z,16.02
2018-09-09T06:29:27.133Z,16.19
2018-09-09T06:31:55.827Z,16.27
2018-09-09T06:34:24.525Z,16.27
2018-09-09T06:36:53.196Z,16.34
2018-09-09T06:39:21.831Z,16.39
2018-09-09T06:41:50.547Z,16.47
2018-09-09T06:44:19.220Z,16.40
2018-09-09T06:46:47.888Z,16.48
2018-09-09T06:49:16.543Z,16.59
2018-09-09T06:51:45.208Z,16.68
2018-09-09T06:54:13.842Z,16.71
2018-09-09T06:56:42.517Z,16.72
2018-09-09T06:59:11.071Z,16.69
2018-09-09T07:01:39.628Z,16.58
2018-09-09T07:04:08.288Z,16.68
2018-09-09T07:06:36.878Z,16.55
2018-09-09T07:09:06.865Z,16.62
2018-09-09T07:11:35.584Z,16.77
2018-09-09T07:14:04.255Z,16.82
2018-09-09T07:16:33.029Z,16.86
2018-09-09T07:19:01.987Z,16.84
2018-09-09T07:21:30.692Z,17.03
2018-09-09T07:23:59.404Z,17.10
2018-09-09T07:26:28.477Z,17.24
2018-09-09T07:28:57.335Z,17.26
2018-09-09T07:31:26.001Z,17.30
2018-09-09T07:33:54.626Z,17.58
2018-09-09T07:36:23.633Z,17.80
2018-09-09T07:38:52.233Z,17.90
2018-09-09T07:41:20.846Z,17.70
2018-09-09T07:43:49.435Z,17.60
2018-09-09T07:46:18.082Z,17.73
2018-09-09T07:48:46.693Z,17.75
2018-09-09T07:51:15.276Z,17.79
2018-09-09T07:53:43.942Z,17.84
2018-09-09T07:56:12.628Z,17.97
2018-09-09T07:58:41.283Z,17.92
2018-09-09T08:01:09.924Z,17.99
2018-09-09T08:03:38.525Z,18.13
2018-09-09T08:06:07.318Z,18.06
2018-09-09T08:08:35.960Z,18.23
2018-09-09T08:11:04.509Z,18.21
2018-09-09T08:13:33.146Z,18.11
2018-09-09T08:16:01.791Z,18.18
2018-09-09T08:18:30.489Z,18.38
2018-09-09T08:20:59.051Z,18.45
2018-09-09T08:23:27.877Z,18.68
2018-09-09T08:25:56.537Z,18.76
2018-09-09T08:28:25.669Z,18.89
2018-09-09T08:30:54.387Z,19.14
2018-09-09T08:33:23.067Z,19.44
2018-09-09T08:35:51.775Z,19.63
2018-09-09T08:38:20.474Z,19.78
2018-09-09T08:40:49.127Z,19.81
2018-09-09T08:43:17.838Z,19.96
2018-09-09T08:45:46.668Z,19.83
2018-09-09T08:48:15.302Z,19.68
2018-09-09T08:50:43.958Z,19.70
2018-09-09T08:53:12.678Z,19.58
2018-09-09T08:55:41.319Z,19.44
2018-09-09T08:58:09.991Z,19.49
2018-09-09T09:00:38.705Z,19.57
2018-09-09T09:03:07.491Z,19.73
2018-09-09T09:05:36.222Z,19.90
2018-09-09T09:08:05.017Z,19.97
2018-09-09T09:10:33.648Z,20.06
2018-09-09T09:13:02.338Z,20.12
2018-09-09T09:15:31.028Z,20.40
2018-09-09T09:17:59.753Z,20.74
2018-09-09T09:20:28.647Z,21.19
2018-09-09T09:22:57.402Z,21.33
2018-09-09T09:25:26.053Z,21.41
2018-09-09T09:27:54.748Z,21.32
2018-09-09T09:30:23.497Z,21.41
2018-09-09T09:32:52.233Z,21.46
2018-09-09T09:35:21.974Z,21.41
2018-09-09T09:37:50.634Z,21.37
2018-09-09T09:40:19.540Z,21.28
2018-09-09T09:42:49.284Z,21.34
2018-09-09T09:45:18.768Z,21.51
2018-09-09T09:47:47.529Z,21.42
2018-09-09T09:50:17.048Z,21.54
2018-09-09T09:52:47.092Z,21.74
2018-09-09T09:55:16.033Z,22.19
2018-09-09T09:57:44.867Z,22.87
2018-09-09T10:00:18.792Z,22.85
2018-09-09T10:02:48.272Z,22.69
2018-09-09T10:05:16.929Z,22.45
2018-09-09T10:07:45.648Z,22.90
2018-09-09T10:10:14.722Z,23.26
2018-09-09T10:12:43.622Z,23.43
2018-09-09T10:15:12.619Z,23.38
2018-09-09T10:17:41.525Z,23.53
2018-09-09T10:20:10.317Z,23.61
2018-09-09T10:22:39.165Z,23.59
2018-09-09T10:25:07.952Z,23.63
2018-09-09T10:27:36.807Z,23.45
2018-09-09T10:30:05.810Z,23.45
2018-09-09T10:32:35.268Z,23.56
2018-09-09T10:35:04.137Z,23.89
2018-09-09T10:37:33.212Z,23.87
2018-09-09T10:40:02.173Z,23.58
2018-09-09T10:42:31.078Z,23.31
2018-09-09T10:44:59.894Z,23.34
2018-09-09T10:47:28.853Z,23.54
2018-09-09T10:49:57.916Z,23.73
2018-09-09T10:52:26.665Z,23.68
2018-09-09T10:54:55.564Z,23.50
2018-09-09T10:57:24.363Z,23.08
2018-09-09T10:59:53.259Z,22.99
2018-09-09T11:02:22.084Z,23.18
2018-09-09T11:04:51.500Z,23.59
2018-09-09T11:07:20.572Z,23.77
2018-09-09T11:09:49.335Z,23.81
2018-09-09T11:12:18.820Z,23.65
2018-09-09T11:14:47.574Z,23.64
2018-09-09T11:17:17.254Z,23.75
2018-09-09T11:19:46.175Z,23.78
2018-09-09T11:22:15.743Z,23.97
2018-09-09T11:24:44.727Z,23.97
2018-09-09T11:27:13.476Z,23.83
2018-09-09T11:29:42.424Z,23.87
2018-09-09T11:32:11.388Z,24.07
2018-09-09T11:34:40.644Z,24.21
2018-09-09T11:37:12.518Z,24.45
2018-09-09T11:39:41.885Z,24.45
2018-09-09T11:42:11.442Z,24.35
2018-09-09T11:44:40.154Z,24.16
2018-09-09T11:47:08.918Z,23.91
2018-09-09T11:49:37.774Z,23.88
2018-09-09T11:52:06.514Z,23.65
2018-09-09T11:54:35.689Z,23.81
2018-09-09T11:57:05.075Z,24.08
2018-09-09T11:59:33.991Z,24.30
2018-09-09T12:02:03.101Z,24.50
2018-09-09T12:04:32.469Z,24.50
2018-09-09T12:07:01.658Z,24.54
2018-09-09T12:09:30.673Z,24.43
2018-09-09T12:12:00.162Z,24.52
2018-09-09T12:14:29.047Z,24.61
2018-09-09T12:16:57.883Z,24.34
2018-09-09T12:19:26.797Z,23.84
2018-09-09T12:21:55.786Z,23.98
2018-09-09T12:24:24.659Z,24.00
2018-09-09T12:26:53.637Z,23.85
2018-09-09T12:29:23.473Z,24.11
2018-09-09T12:31:52.222Z,24.05
2018-09-09T12:34:21.687Z,24.03
2018-09-09T12:36:50.524Z,24.18
2018-09-09T12:39:19.269Z,24.32
2018-09-09T12:41:48.169Z,24.54
2018-09-09T12:44:22.047Z,24.64
2018-09-09T12:46:55.913Z,24.81
2018-09-09T12:49:24.533Z,24.90
2018-09-09T12:51:53.313Z,24.93
2018-09-09T12:54:21.944Z,24.92
2018-09-09T12:56:50.637Z,24.78
2018-09-09T12:59:19.508Z,24.93
2018-09-09T13:01:48.380Z,25.06
2018-09-09T13:04:17.014Z,24.89
2018-09-09T13:06:45.748Z,24.90
2018-09-09T13:09:14.441Z,24.87
2018-09-09T13:11:43.167Z,24.76
2018-09-09T13:14:11.868Z,24.74
2018-09-09T13:16:40.604Z,24.57
2018-09-09T13:19:09.472Z,24.65
2018-09-09T13:21:38.238Z,24.67
2018-09-09T13:24:06.904Z,24.47
2018-09-09T13:26:35.578Z,24.42
2018-09-09T13:29:04.324Z,24.50
2018-09-09T13:31:33.110Z,24.61
2018-09-09T13:34:01.832Z,24.70
2018-09-09T13:36:30.532Z,24.79
2018-09-09T13:38:59.286Z,24.85
2018-09-09T13:41:28.049Z,24.70
2018-09-09T13:43:56.788Z,24.74
2018-09-09T13:46:25.482Z,24.69
2018-09-09T13:48:54.260Z,24.69
2018-09-09T13:51:22.926Z,24.62
2018-09-09T13:53:51.599Z,24.55
2018-09-09T13:56:20.339Z,24.56
2018-09-09T13:58:49.134Z,24.41
2018-09-09T14:01:17.832Z,24.29
2018-09-09T14:03:46.540Z,24.32
2018-09-09T14:06:15.236Z,24.31
2018-09-09T14:08:43.949Z,24.22
2018-09-09T14:11:12.729Z,24.09
2018-09-09T14:13:41.374Z,24.11
2018-09-09T14:16:10.142Z,24.10
2018-09-09T14:18:38.817Z,24.08
2018-09-09T14:21:07.763Z,24.06
2018-09-09T14:23:36.521Z,24.22
2018-09-09T14:26:05.207Z,24.25
2018-09-09T14:28:33.864Z,24.29
2018-09-09T14:31:02.778Z,24.17
2018-09-09T14:33:31.452Z,24.08
2018-09-09T14:36:00.142Z,24.18
2018-09-09T14:38:28.800Z,24.15
2018-09-09T14:40:57.497Z,24.10
2018-09-09T14:43:26.137Z,24.10
2018-09-09T14:45:54.833Z,24.10
2018-09-09T14:48:23.519Z,24.11
2018-09-09T14:50:52.212Z,24.08
2018-09-09T14:53:21.062Z,24.07
2018-09-09T14:55:50.034Z,24.02
2018-09-09T14:58:18.725Z,24.07
2018-09-09T15:00:47.407Z,24.12
2018-09-09T15:03:16.155Z,24.10
2018-09-09T15:05:44.892Z,24.01
2018-09-09T15:08:13.651Z,23.88
2018-09-09T15:10:42.318Z,24.06
2018-09-09T15:13:11.039Z,24.09
2018-09-09T15:15:39.717Z,23.89
2018-09-09T15:18:08.456Z,23.98
2018-09-09T15:20:37.092Z,24.05
2018-09-09T15:23:05.873Z,24.17
2018-09-09T15:25:34.538Z,24.15
2018-09-09T15:28:03.236Z,24.18
2018-09-09T15:30:31.944Z,24.05
2018-09-09T15:33:00.646Z,23.98
2018-09-09T15:35:29.362Z,23.98
2018-09-09T15:37:58.017Z,23.98
2018-09-09T15:40:26.778Z,23.74
2018-09-09T15:42:55.528Z,23.78
2018-09-09T15:45:24.261Z,23.89
2018-09-09T15:47:52.990Z,24.10
2018-09-09T15:50:21.763Z,24.38
2018-09-09T15:52:50.723Z,24.63
2018-09-09T15:55:19.433Z,24.69
2018-09-09T15:57:48.089Z,24.57
2018-09-09T16:00:16.894Z,24.58
2018-09-09T16:02:45.588Z,24.70
2018-09-09T16:05:14.286Z,24.67
2018-09-09T16:07:43.002Z,24.58
2018-09-09T16:10:11.739Z,24.62
2018-09-09T16:12:40.505Z,24.58
2018-09-09T16:15:09.143Z,24.33
2018-09-09T16:17:37.793Z,24.34
2018-09-09T16:20:07.422Z,24.27
2018-09-09T16:22:36.113Z,24.21
2018-09-09T16:25:04.884Z,24.05
2018-09-09T16:27:33.593Z,24.07
2018-09-09T16:30:02.336Z,23.92
2018-09-09T16:32:31.031Z,23.92
2018-09-09T16:34:59.700Z,24.00
2018-09-09T16:37:28.391Z,24.02
2018-09-09T16:39:57.060Z,23.98
2018-09-09T16:42:25.821Z,23.93
2018-09-09T16:44:54.564Z,23.89
2018-09-09T16:47:23.217Z,23.84
2018-09-09T16:49:51.944Z,23.79
2018-09-09T16:52:21.310Z,23.72
2018-09-09T16:54:50.018Z,23.51
2018-09-09T16:57:18.744Z,23.29
2018-09-09T16:59:47.459Z,23.05
2018-09-09T17:02:16.220Z,22.90
2018-09-09T17:04:45.017Z,22.63
2018-09-09T17:07:13.855Z,22.38
2018-09-09T17:09:42.615Z,22.28
2018-09-09T17:12:11.317Z,22.27
2018-09-09T17:14:40.048Z,21.98
2018-09-09T17:17:08.784Z,21.87
2018-09-09T17:19:37.472Z,21.69
2018-09-09T17:22:06.311Z,21.49
2018-09-09T17:24:34.991Z,21.31
2018-09-09T17:27:03.694Z,21.09
2018-09-09T17:29:32.438Z,20.94
2018-09-09T17:32:01.147Z,20.80
2018-09-09T17:34:29.892Z,20.77
2018-09-09T17:36:58.596Z,20.61
2018-09-09T17:39:27.303Z,20.45
2018-09-09T17:41:56.090Z,20.26
2018-09-09T17:44:24.874Z,20.13
2018-09-09T17:46:53.601Z,19.96
2018-09-09T17:49:22.430Z,19.87
2018-09-09T17:51:51.100Z,19.75
2018-09-09T17:54:19.811Z,19.68
2018-09-09T17:56:48.501Z,19.50
2018-09-09T17:59:17.322Z,19.31
2018-09-09T18:01:46.098Z,19.18
2018-09-09T18:04:14.912Z,19.12
2018-09-09T18:06:43.588Z,19.01
2018-09-09T18:09:12.252Z,18.91
2018-09-09T18:11:41.039Z,18.82
2018-09-09T18:14:09.647Z,18.73
2018-09-09T18:16:38.252Z,18.72
2018-09-09T18:19:06.998Z,18.63
2018-09-09T18:21:35.751Z,18.56
2018-09-09T18:24:04.447Z,18.32
2018-09-09T18:26:33.771Z,18.19
2018-09-09T18:29:02.645Z,18.14
2018-09-09T18:31:31.351Z,18.06
2018-09-09T18:34:00.082Z,17.91
2018-09-09T18:36:28.859Z,17.81
2018-09-09T18:38:57.632Z,17.66
2018-09-09T18:41:26.336Z,17.60
2018-09-09T18:43:55.316Z,17.63
2018-09-09T18:46:23.976Z,17.52
2018-09-09T18:48:52.948Z,17.41
2018-09-09T18:51:21.662Z,17.32
2018-09-09T18:53:50.301Z,17.34
2018-09-09T18:56:18.989Z,17.13
2018-09-09T18:58:47.707Z,17.03
2018-09-09T19:01:16.343Z,17.05
2018-09-09T19:03:45.007Z,17.02
2018-09-09T19:06:13.774Z,16.92
2018-09-09T19:08:42.424Z,16.91
2018-09-09T19:11:11.121Z,16.87
2018-09-09T19:13:39.858Z,16.75
2018-09-09T19:16:08.682Z,16.67
2018-09-09T19:18:37.363Z,16.59
2018-09-09T19:21:06.063Z,16.40
2018-09-09T19:23:34.771Z,16.44
2018-09-09T19:26:03.497Z,16.41
2018-09-09T19:28:32.222Z,16.38
2018-09-09T19:31:00.958Z,16.34
2018-09-09T19:33:29.725Z,16.28
2018-09-09T19:35:58.411Z,16.18
2018-09-09T19:38:27.176Z,16.17
2018-09-09T19:40:55.932Z,16.18
2018-09-09T19:43:24.598Z,16.16
2018-09-09T19:45:53.865Z,16.06
2018-09-09T19:48:22.581Z,16.06
2018-09-09T19:50:51.320Z,16.03
2018-09-09T19:53:20.087Z,16.05
2018-09-09T19:55:48.782Z,15.99
2018-09-09T19:58:17.529Z,15.93
2018-09-09T20:00:46.256Z,15.88
2018-09-09T20:03:15.011Z,15.87
2018-09-09T20:05:43.690Z,15.81
2018-09-09T20:08:12.467Z,15.76
2018-09-09T20:10:41.163Z,15.67
2018-09-09T20:13:09.806Z,15.53
2018-09-09T20:15:38.450Z,15.51
2018-09-09T20:18:07.546Z,15.49
2018-09-09T20:20:36.279Z,15.55
2018-09-09T20:23:04.938Z,15.62
2018-09-09T20:25:33.563Z,15.56
2018-09-09T20:28:02.227Z,15.47
2018-09-09T20:30:30.971Z,15.46
2018-09-09T20:32:59.640Z,15.38
2018-09-09T20:35:28.336Z,15.33
2018-09-09T20:37:57.008Z,15.25
2018-09-09T20:40:25.847Z,15.28
2018-09-09T20:42:54.561Z,15.20
2018-09-09T20:45:23.765Z,15.26
2018-09-09T20:47:52.462Z,15.28
2018-09-09T20:50:21.166Z,15.13
2018-09-09T20:52:49.809Z,15.05
2018-09-09T20:55:18.707Z,15.00
2018-09-09T20:57:47.357Z,15.06
2018-09-09T21:00:16.013Z,15.07
2018-09-09T21:02:44.725Z,15.11
2018-09-09T21:05:13.378Z,15.06
2018-09-09T21:07:42.047Z,14.94
2018-09-09T21:10:10.781Z,14.94
2018-09-09T21:12:39.476Z,14.96
2018-09-09T21:15:08.474Z,14.99
2018-09-09T21:17:37.155Z,14.93
2018-09-09T21:20:05.922Z,14.88
2018-09-09T21:22:34.624Z,14.83
2018-09-09T21:25:03.401Z,14.78
2018-09-09T21:27:32.122Z,14.74
2018-09-09T21:30:01.405Z,14.72
2018-09-09T21:32:30.155Z,14.71
2018-09-09T21:34:58.893Z,14.68
2018-09-09T21:37:27.547Z,14.71
2018-09-09T21:39:56.198Z,14.70
2018-09-09T21:42:25.217Z,14.67
2018-09-09T21:44:53.895Z,14.67
2018-09-09T21:47:22.567Z,14.59
2018-09-09T21:49:51.206Z,14.57
2018-09-09T21:52:19.935Z,14.61
2018-09-09T21:54:48.691Z,14.62
2018-09-09T21:57:17.341Z,14.69
2018-09-09T21:59:45.986Z,14.63
2018-09-09T22:02:15.000Z,14.65
2018-09-09T22:04:43.687Z,14.65
2018-09-09T22:07:13.636Z,14.65
2018-09-09T22:09:43.690Z,14.62
2018-09-09T22:12:13.252Z,14.63
2018-09-09T22:14:42.677Z,14.62
2018-09-09T22:17:11.812Z,14.59
2018-09-09T22:19:40.740Z,14.57
2018-09-09T22:22:10.429Z,14.53
2018-09-09T22:24:39.120Z,14.54
2018-09-09T22:27:07.965Z,14.53
2018-09-09T22:29:36.741Z,14.54
2018-09-09T22:32:05.434Z,14.51
2018-09-09T22:34:34.375Z,14.46
2018-09-09T22:37:03.039Z,14.50
2018-09-09T22:39:31.733Z,14.53
2018-09-09T22:42:00.474Z,14.44
2018-09-09T22:44:29.166Z,14.47
2018-09-09T22:46:57.809Z,14.52
2018-09-09T22:49:26.669Z,14.53
2018-09-09T22:51:55.997Z,14.54
2018-09-09T22:54:24.699Z,14.55
2018-09-09T22:56:53.466Z,14.55
2018-09-09T22:59:22.190Z,14.52
2018-09-09T23:01:50.908Z,14.51
2018-09-09T23:04:19.631Z,14.53
2018-09-09T23:06:48.334Z,14.48
2018-09-09T23:09:17.005Z,14.44
2018-09-09T23:11:45.680Z,14.40
2018-09-09T23:14:14.481Z,14.37
2018-09-09T23:16:43.196Z,14.43
2018-09-09T23:19:11.890Z,14.47
2018-09-09T23:21:40.556Z,14.44
2018-09-09T23:24:09.221Z,14.49
2018-09-09T23:26:38.001Z,14.51
2018-09-09T23:29:06.765Z,14.42
2018-09-09T23:31:35.456Z,14.48
2018-09-09T23:34:04.224Z,14.41
2018-09-09T23:36:32.865Z,14.50
2018-09-09T23:39:01.610Z,14.52
2018-09-09T23:41:30.597Z,14.51
2018-09-09T23:43:59.359Z,14.51
2018-09-09T23:46:28.066Z,14.51
2018-09-09T23:48:56.886Z,14.55
2018-09-09T23:51:25.644Z,14.57
2018-09-09T23:53:54.302Z,14.57
2018-09-09T23:56:23.065Z,14.49
2018-09-09T23:58:51.811Z,14.48
